sensor_id;sensor_type;location;lat;lon;timestamp;temperature;humidity
13798;DHT22;6970;51.340;3.240;2023-05-20T00:00:46;13.50;99.90
13798;DHT22;6970;51.340;3.240;2023-05-20T00:03:17;13.50;99.90
13798;DHT22;6970;51.340;3.240;2023-05-20T00:05:46;13.50;99.90
13798;DHT22;6970;51.340;3.240;2023-05-20T00:08:13;13.50;99.90
13798;DHT22;6970;51.340;3.240;2023-05-20T00:10:40;13.50;99.90
13798;DHT22;6970;51.340;3.240;2023-05-20T00:13:07;13.50;99.90
13798;DHT22;6970;51.340;3.240;2023-05-20T00:15:34;13.50;99.90
13798;DHT22;6970;51.340;3.240;2023-05-20T00:18:04;13.50;99.90
13798;DHT22;6970;51.340;3.240;2023-05-20T00:20:31;13.50;99.90
13798;DHT22;6970;51.340;3.240;2023-05-20T00:22:59;13.50;99.90
13798;DHT22;6970;51.340;3.240;2023-05-20T00:25:26;13.50;99.90
13798;DHT22;6970;51.340;3.240;2023-05-20T00:27:53;13.50;99.90
13798;DHT22;6970;51.340;3.240;2023-05-20T00:30:21;13.50;99.90
13798;DHT22;6970;51.340;3.240;2023-05-20T00:32:48;13.50;99.90
13798;DHT22;6970;51.340;3.240;2023-05-20T00:35:15;13.50;99.90
13798;DHT22;6970;51.340;3.240;2023-05-20T00:37:42;13.50;99.90
13798;DHT22;6970;51.340;3.240;2023-05-20T00:40:10;13.50;99.90
13798;DHT22;6970;51.340;3.240;2023-05-20T00:42:42;13.60;99.90
13798;DHT22;6970;51.340;3.240;2023-05-20T00:45:09;13.60;99.90
13798;DHT22;6970;51.340;3.240;2023-05-20T00:47:37;13.60;99.90
13798;DHT22;6970;51.340;3.240;2023-05-20T00:50:05;13.60;99.90
13798;DHT22;6970;51.340;3.240;2023-05-20T00:52:33;13.60;99.90
13798;DHT22;6970;51.340;3.240;2023-05-20T00:55:01;13.60;99.90
13798;DHT22;6970;51.340;3.240;2023-05-20T00:57:28;13.60;99.90
13798;DHT22;6970;51.340;3.240;2023-05-20T00:59:55;13.60;99.90
13798;DHT22;6970;51.340;3.240;2023-05-20T01:02:23;13.60;99.90
13798;DHT22;6970;51.340;3.240;2023-05-20T01:04:51;13.60;99.90
13798;DHT22;6970;51.340;3.240;2023-05-20T01:07:18;13.60;99.90
13798;DHT22;6970;51.340;3.240;2023-05-20T01:09:45;13.60;99.90
13798;DHT22;6970;51.340;3.240;2023-05-20T01:12:25;13.60;99.90
13798;DHT22;6970;51.340;3.240;2023-05-20T01:15:08;13.60;99.90
13798;DHT22;6970;51.340;3.240;2023-05-20T01:17:39;13.60;99.90
13798;DHT22;6970;51.340;3.240;2023-05-20T01:20:08;13.60;99.90
13798;DHT22;6970;51.340;3.240;2023-05-20T01:22:56;13.60;99.90
13798;DHT22;6970;51.340;3.240;2023-05-20T01:25:24;13.60;99.90
13798;DHT22;6970;51.340;3.240;2023-05-20T01:27:53;13.60;99.90
13798;DHT22;6970;51.340;3.240;2023-05-20T01:30:21;13.60;99.90
13798;DHT22;6970;51.340;3.240;2023-05-20T01:32:53;13.60;99.90
13798;DHT22;6970;51.340;3.240;2023-05-20T01:35:22;13.60;99.90
13798;DHT22;6970;51.340;3.240;2023-05-20T01:37:51;13.60;99.90
13798;DHT22;6970;51.340;3.240;2023-05-20T01:40:18;13.60;99.90
13798;DHT22;6970;51.340;3.240;2023-05-20T01:42:46;13.60;99.90
13798;DHT22;6970;51.340;3.240;2023-05-20T01:45:23;13.50;99.90
13798;DHT22;6970;51.340;3.240;2023-05-20T01:47:51;13.50;99.90
13798;DHT22;6970;51.340;3.240;2023-05-20T01:50:18;13.50;99.90
13798;DHT22;6970;51.340;3.240;2023-05-20T01:52:45;13.50;99.90
13798;DHT22;6970;51.340;3.240;2023-05-20T01:55:12;13.50;99.90
13798;DHT22;6970;51.340;3.240;2023-05-20T01:57:40;13.50;99.90
13798;DHT22;6970;51.340;3.240;2023-05-20T02:00:07;13.40;99.90
13798;DHT22;6970;51.340;3.240;2023-05-20T02:02:35;13.50;99.90
13798;DHT22;6970;51.340;3.240;2023-05-20T02:05:02;13.50;99.90
13798;DHT22;6970;51.340;3.240;2023-05-20T02:07:29;13.50;99.90
13798;DHT22;6970;51.340;3.240;2023-05-20T02:09:57;13.50;99.90
13798;DHT22;6970;51.340;3.240;2023-05-20T02:12:25;13.50;99.90
13798;DHT22;6970;51.340;3.240;2023-05-20T02:14:52;13.50;99.90
13798;DHT22;6970;51.340;3.240;2023-05-20T02:17:19;13.40;99.90
13798;DHT22;6970;51.340;3.240;2023-05-20T02:19:47;13.40;99.90
13798;DHT22;6970;51.340;3.240;2023-05-20T02:22:16;13.40;99.90
13798;DHT22;6970;51.340;3.240;2023-05-20T02:24:43;13.40;99.90
13798;DHT22;6970;51.340;3.240;2023-05-20T02:27:10;13.40;99.90
13798;DHT22;6970;51.340;3.240;2023-05-20T02:29:37;13.40;99.90
13798;DHT22;6970;51.340;3.240;2023-05-20T02:32:04;13.40;99.90
13798;DHT22;6970;51.340;3.240;2023-05-20T02:34:32;13.30;99.90
13798;DHT22;6970;51.340;3.240;2023-05-20T02:36:59;13.40;99.90
13798;DHT22;6970;51.340;3.240;2023-05-20T02:39:27;13.30;99.90
13798;DHT22;6970;51.340;3.240;2023-05-20T02:41:57;13.30;99.90
13798;DHT22;6970;51.340;3.240;2023-05-20T02:44:24;13.30;99.90
13798;DHT22;6970;51.340;3.240;2023-05-20T02:46:51;13.30;99.90
13798;DHT22;6970;51.340;3.240;2023-05-20T02:49:18;13.30;99.90
13798;DHT22;6970;51.340;3.240;2023-05-20T02:51:45;13.30;99.90
13798;DHT22;6970;51.340;3.240;2023-05-20T02:54:12;13.30;99.90
13798;DHT22;6970;51.340;3.240;2023-05-20T02:56:39;13.20;99.90
13798;DHT22;6970;51.340;3.240;2023-05-20T02:59:06;13.20;99.90
13798;DHT22;6970;51.340;3.240;2023-05-20T03:01:34;13.20;99.90
13798;DHT22;6970;51.340;3.240;2023-05-20T03:04:02;13.20;99.90
13798;DHT22;6970;51.340;3.240;2023-05-20T03:06:30;13.20;99.90
13798;DHT22;6970;51.340;3.240;2023-05-20T03:08:59;13.20;99.90
13798;DHT22;6970;51.340;3.240;2023-05-20T03:11:27;13.20;99.90
13798;DHT22;6970;51.340;3.240;2023-05-20T03:13:54;13.20;99.90
13798;DHT22;6970;51.340;3.240;2023-05-20T03:16:21;13.20;99.90
13798;DHT22;6970;51.340;3.240;2023-05-20T03:18:48;13.20;99.90
13798;DHT22;6970;51.340;3.240;2023-05-20T03:21:15;13.20;99.90
13798;DHT22;6970;51.340;3.240;2023-05-20T03:23:42;13.10;99.90
13798;DHT22;6970;51.340;3.240;2023-05-20T03:26:10;13.10;99.90
13798;DHT22;6970;51.340;3.240;2023-05-20T03:28:37;13.10;99.90
13798;DHT22;6970;51.340;3.240;2023-05-20T03:31:04;13.10;99.90
13798;DHT22;6970;51.340;3.240;2023-05-20T03:33:34;13.10;99.90
13798;DHT22;6970;51.340;3.240;2023-05-20T03:36:01;13.10;99.90
13798;DHT22;6970;51.340;3.240;2023-05-20T03:38:29;13.10;99.90
13798;DHT22;6970;51.340;3.240;2023-05-20T03:40:57;13.10;99.90
13798;DHT22;6970;51.340;3.240;2023-05-20T03:43:24;13.10;99.90
13798;DHT22;6970;51.340;3.240;2023-05-20T03:45:52;13.10;99.90
13798;DHT22;6970;51.340;3.240;2023-05-20T03:48:19;13.10;99.90
13798;DHT22;6970;51.340;3.240;2023-05-20T03:50:48;13.10;99.90
13798;DHT22;6970;51.340;3.240;2023-05-20T03:53:15;13.10;99.90
13798;DHT22;6970;51.340;3.240;2023-05-20T03:55:43;13.10;99.90
13798;DHT22;6970;51.340;3.240;2023-05-20T03:58:10;13.10;99.90
13798;DHT22;6970;51.340;3.240;2023-05-20T04:00:39;13.10;99.90
13798;DHT22;6970;51.340;3.240;2023-05-20T04:03:06;13.10;99.90
13798;DHT22;6970;51.340;3.240;2023-05-20T04:05:34;13.10;99.90
13798;DHT22;6970;51.340;3.240;2023-05-20T04:08:02;13.10;99.90
13798;DHT22;6970;51.340;3.240;2023-05-20T04:10:31;13.10;99.90
13798;DHT22;6970;51.340;3.240;2023-05-20T04:12:59;13.10;99.90
13798;DHT22;6970;51.340;3.240;2023-05-20T04:15:26;13.10;99.90
13798;DHT22;6970;51.340;3.240;2023-05-20T04:17:55;13.10;99.90
13798;DHT22;6970;51.340;3.240;2023-05-20T04:20:22;13.10;99.90
13798;DHT22;6970;51.340;3.240;2023-05-20T04:22:50;13.10;99.90
13798;DHT22;6970;51.340;3.240;2023-05-20T04:25:18;13.10;99.90
13798;DHT22;6970;51.340;3.240;2023-05-20T04:27:45;13.20;99.90
13798;DHT22;6970;51.340;3.240;2023-05-20T04:30:12;13.20;99.90
13798;DHT22;6970;51.340;3.240;2023-05-20T04:32:39;13.20;99.90
13798;DHT22;6970;51.340;3.240;2023-05-20T04:35:07;13.30;99.90
13798;DHT22;6970;51.340;3.240;2023-05-20T04:37:38;13.30;99.90
13798;DHT22;6970;51.340;3.240;2023-05-20T04:40:05;13.30;99.90
13798;DHT22;6970;51.340;3.240;2023-05-20T04:42:32;13.30;99.90
13798;DHT22;6970;51.340;3.240;2023-05-20T04:44:59;13.30;99.90
13798;DHT22;6970;51.340;3.240;2023-05-20T04:47:27;13.30;99.90
13798;DHT22;6970;51.340;3.240;2023-05-20T04:49:55;13.30;99.90
13798;DHT22;6970;51.340;3.240;2023-05-20T04:52:25;13.30;99.90
13798;DHT22;6970;51.340;3.240;2023-05-20T04:54:52;13.30;99.90
13798;DHT22;6970;51.340;3.240;2023-05-20T04:57:20;13.30;99.90
13798;DHT22;6970;51.340;3.240;2023-05-20T04:59:48;13.30;99.90
13798;DHT22;6970;51.340;3.240;2023-05-20T05:02:15;13.40;99.90
13798;DHT22;6970;51.340;3.240;2023-05-20T05:04:42;13.40;99.90
13798;DHT22;6970;51.340;3.240;2023-05-20T05:07:09;13.40;99.90
13798;DHT22;6970;51.340;3.240;2023-05-20T05:09:37;13.40;99.90
13798;DHT22;6970;51.340;3.240;2023-05-20T05:12:04;13.30;99.90
13798;DHT22;6970;51.340;3.240;2023-05-20T05:14:31;13.30;99.90
13798;DHT22;6970;51.340;3.240;2023-05-20T05:16:58;13.40;99.90
13798;DHT22;6970;51.340;3.240;2023-05-20T05:19:25;13.40;99.90
13798;DHT22;6970;51.340;3.240;2023-05-20T05:21:52;13.40;99.90
13798;DHT22;6970;51.340;3.240;2023-05-20T05:24:19;13.40;99.90
13798;DHT22;6970;51.340;3.240;2023-05-20T05:26:46;13.40;99.90
13798;DHT22;6970;51.340;3.240;2023-05-20T05:29:13;13.40;99.90
13798;DHT22;6970;51.340;3.240;2023-05-20T05:31:40;13.40;99.90
13798;DHT22;6970;51.340;3.240;2023-05-20T05:34:08;13.50;99.90
13798;DHT22;6970;51.340;3.240;2023-05-20T05:36:38;13.50;99.90
13798;DHT22;6970;51.340;3.240;2023-05-20T05:39:05;13.60;99.90
13798;DHT22;6970;51.340;3.240;2023-05-20T05:41:32;13.60;99.90
13798;DHT22;6970;51.340;3.240;2023-05-20T05:44:00;13.60;99.90
13798;DHT22;6970;51.340;3.240;2023-05-20T05:46:27;13.60;99.90
13798;DHT22;6970;51.340;3.240;2023-05-20T05:48:54;13.60;99.90
13798;DHT22;6970;51.340;3.240;2023-05-20T05:51:21;13.60;99.90
13798;DHT22;6970;51.340;3.240;2023-05-20T05:53:50;13.70;99.90
13798;DHT22;6970;51.340;3.240;2023-05-20T05:56:17;13.70;99.90
13798;DHT22;6970;51.340;3.240;2023-05-20T05:58:44;13.70;99.90
13798;DHT22;6970;51.340;3.240;2023-05-20T06:01:14;13.70;99.90
13798;DHT22;6970;51.340;3.240;2023-05-20T06:03:41;13.80;99.90
13798;DHT22;6970;51.340;3.240;2023-05-20T06:06:08;13.80;99.90
13798;DHT22;6970;51.340;3.240;2023-05-20T06:08:35;13.80;99.90
13798;DHT22;6970;51.340;3.240;2023-05-20T06:11:02;13.90;99.90
13798;DHT22;6970;51.340;3.240;2023-05-20T06:13:29;13.90;99.90
13798;DHT22;6970;51.340;3.240;2023-05-20T06:15:56;13.90;99.90
13798;DHT22;6970;51.340;3.240;2023-05-20T06:18:23;13.90;99.90
13798;DHT22;6970;51.340;3.240;2023-05-20T06:20:56;13.90;99.90
13798;DHT22;6970;51.340;3.240;2023-05-20T06:23:23;14.00;99.90
13798;DHT22;6970;51.340;3.240;2023-05-20T06:25:50;14.00;99.90
13798;DHT22;6970;51.340;3.240;2023-05-20T06:28:19;14.00;99.90
13798;DHT22;6970;51.340;3.240;2023-05-20T06:30:46;14.10;99.90
13798;DHT22;6970;51.340;3.240;2023-05-20T06:33:13;14.10;99.90
13798;DHT22;6970;51.340;3.240;2023-05-20T06:35:41;14.20;99.90
13798;DHT22;6970;51.340;3.240;2023-05-20T06:38:08;14.20;99.90
13798;DHT22;6970;51.340;3.240;2023-05-20T06:40:35;14.30;99.90
13798;DHT22;6970;51.340;3.240;2023-05-20T06:43:02;14.30;99.90
13798;DHT22;6970;51.340;3.240;2023-05-20T06:45:29;14.40;99.90
13798;DHT22;6970;51.340;3.240;2023-05-20T06:47:56;14.50;99.90
13798;DHT22;6970;51.340;3.240;2023-05-20T06:50:23;14.50;99.90
13798;DHT22;6970;51.340;3.240;2023-05-20T06:52:50;14.50;99.90
13798;DHT22;6970;51.340;3.240;2023-05-20T06:55:17;14.60;99.90
13798;DHT22;6970;51.340;3.240;2023-05-20T06:57:44;14.70;99.90
13798;DHT22;6970;51.340;3.240;2023-05-20T07:00:12;14.80;99.90
13798;DHT22;6970;51.340;3.240;2023-05-20T07:02:40;14.80;99.90
13798;DHT22;6970;51.340;3.240;2023-05-20T07:05:07;14.90;99.90
13798;DHT22;6970;51.340;3.240;2023-05-20T07:07:35;15.10;99.90
13798;DHT22;6970;51.340;3.240;2023-05-20T07:10:04;15.20;99.90
13798;DHT22;6970;51.340;3.240;2023-05-20T07:12:32;15.40;99.90
13798;DHT22;6970;51.340;3.240;2023-05-20T07:15:02;15.60;99.90
13798;DHT22;6970;51.340;3.240;2023-05-20T07:17:29;15.70;99.90
13798;DHT22;6970;51.340;3.240;2023-05-20T07:19:56;15.90;99.90
13798;DHT22;6970;51.340;3.240;2023-05-20T07:22:23;16.00;99.90
13798;DHT22;6970;51.340;3.240;2023-05-20T07:24:50;16.10;99.90
13798;DHT22;6970;51.340;3.240;2023-05-20T07:27:20;16.20;99.90
13798;DHT22;6970;51.340;3.240;2023-05-20T07:29:48;16.30;99.90
13798;DHT22;6970;51.340;3.240;2023-05-20T07:32:15;16.50;99.90
13798;DHT22;6970;51.340;3.240;2023-05-20T07:34:42;16.60;99.90
13798;DHT22;6970;51.340;3.240;2023-05-20T07:37:09;16.70;99.90
13798;DHT22;6970;51.340;3.240;2023-05-20T07:39:38;16.90;99.90
13798;DHT22;6970;51.340;3.240;2023-05-20T07:42:05;17.00;99.90
13798;DHT22;6970;51.340;3.240;2023-05-20T07:44:33;17.20;99.90
13798;DHT22;6970;51.340;3.240;2023-05-20T07:47:00;17.30;99.90
13798;DHT22;6970;51.340;3.240;2023-05-20T07:49:27;17.50;99.90
13798;DHT22;6970;51.340;3.240;2023-05-20T07:51:54;17.70;99.90
13798;DHT22;6970;51.340;3.240;2023-05-20T07:54:22;17.90;99.90
13798;DHT22;6970;51.340;3.240;2023-05-20T07:56:49;18.20;99.90
13798;DHT22;6970;51.340;3.240;2023-05-20T07:59:16;18.40;99.90
13798;DHT22;6970;51.340;3.240;2023-05-20T08:01:43;18.50;99.90
13798;DHT22;6970;51.340;3.240;2023-05-20T08:04:10;18.60;99.90
13798;DHT22;6970;51.340;3.240;2023-05-20T08:06:37;18.70;99.90
13798;DHT22;6970;51.340;3.240;2023-05-20T08:09:05;18.80;99.90
13798;DHT22;6970;51.340;3.240;2023-05-20T08:11:32;18.90;99.90
13798;DHT22;6970;51.340;3.240;2023-05-20T08:14:00;19.00;99.90
13798;DHT22;6970;51.340;3.240;2023-05-20T08:16:28;19.10;99.90
13798;DHT22;6970;51.340;3.240;2023-05-20T08:18:55;19.10;99.90
13798;DHT22;6970;51.340;3.240;2023-05-20T08:21:22;19.20;99.90
13798;DHT22;6970;51.340;3.240;2023-05-20T08:23:50;19.30;99.90
13798;DHT22;6970;51.340;3.240;2023-05-20T08:26:17;19.40;99.90
13798;DHT22;6970;51.340;3.240;2023-05-20T08:28:44;19.50;99.90
13798;DHT22;6970;51.340;3.240;2023-05-20T08:31:12;19.60;99.90
13798;DHT22;6970;51.340;3.240;2023-05-20T08:33:39;19.70;99.90
13798;DHT22;6970;51.340;3.240;2023-05-20T08:36:06;19.90;99.90
13798;DHT22;6970;51.340;3.240;2023-05-20T08:38:34;19.80;99.90
13798;DHT22;6970;51.340;3.240;2023-05-20T08:41:02;19.80;99.90
13798;DHT22;6970;51.340;3.240;2023-05-20T08:43:29;19.80;99.90
13798;DHT22;6970;51.340;3.240;2023-05-20T08:45:58;19.90;99.90
13798;DHT22;6970;51.340;3.240;2023-05-20T08:48:25;20.00;99.90
13798;DHT22;6970;51.340;3.240;2023-05-20T08:50:56;20.00;99.90
13798;DHT22;6970;51.340;3.240;2023-05-20T08:53:24;20.00;99.90
13798;DHT22;6970;51.340;3.240;2023-05-20T08:55:53;20.00;99.90
13798;DHT22;6970;51.340;3.240;2023-05-20T08:58:27;20.00;99.90
13798;DHT22;6970;51.340;3.240;2023-05-20T09:00:55;20.10;99.90
13798;DHT22;6970;51.340;3.240;2023-05-20T09:03:22;20.30;99.90
13798;DHT22;6970;51.340;3.240;2023-05-20T09:05:52;20.40;99.90
13798;DHT22;6970;51.340;3.240;2023-05-20T09:08:23;20.60;99.90
13798;DHT22;6970;51.340;3.240;2023-05-20T09:10:52;20.70;99.90
13798;DHT22;6970;51.340;3.240;2023-05-20T09:13:20;20.80;99.90
13798;DHT22;6970;51.340;3.240;2023-05-20T09:15:49;20.90;99.90
13798;DHT22;6970;51.340;3.240;2023-05-20T09:18:17;20.90;99.90
13798;DHT22;6970;51.340;3.240;2023-05-20T09:20:46;21.00;99.90
13798;DHT22;6970;51.340;3.240;2023-05-20T09:23:13;21.20;99.90
13798;DHT22;6970;51.340;3.240;2023-05-20T09:25:40;21.30;99.90
13798;DHT22;6970;51.340;3.240;2023-05-20T09:28:08;21.40;99.90
13798;DHT22;6970;51.340;3.240;2023-05-20T09:30:35;21.50;99.90
13798;DHT22;6970;51.340;3.240;2023-05-20T09:33:03;21.50;99.90
13798;DHT22;6970;51.340;3.240;2023-05-20T09:35:34;21.60;99.90
13798;DHT22;6970;51.340;3.240;2023-05-20T09:38:05;21.50;99.90
13798;DHT22;6970;51.340;3.240;2023-05-20T09:40:33;21.60;99.90
13798;DHT22;6970;51.340;3.240;2023-05-20T09:43:05;21.40;99.90
13798;DHT22;6970;51.340;3.240;2023-05-20T09:45:37;21.40;99.90
13798;DHT22;6970;51.340;3.240;2023-05-20T09:48:04;21.40;99.90
13798;DHT22;6970;51.340;3.240;2023-05-20T09:50:34;21.60;99.90
13798;DHT22;6970;51.340;3.240;2023-05-20T09:53:03;21.50;99.90
13798;DHT22;6970;51.340;3.240;2023-05-20T09:55:30;21.60;99.90
13798;DHT22;6970;51.340;3.240;2023-05-20T09:58:01;21.60;99.90
13798;DHT22;6970;51.340;3.240;2023-05-20T10:00:29;21.60;99.90
13798;DHT22;6970;51.340;3.240;2023-05-20T10:02:56;21.60;99.90
13798;DHT22;6970;51.340;3.240;2023-05-20T10:05:31;21.60;99.90
13798;DHT22;6970;51.340;3.240;2023-05-20T10:21:26;21.90;99.90
13798;DHT22;6970;51.340;3.240;2023-05-20T10:23:53;22.00;99.90
13798;DHT22;6970;51.340;3.240;2023-05-20T10:26:20;22.10;99.90
13798;DHT22;6970;51.340;3.240;2023-05-20T10:28:48;22.10;99.90
13798;DHT22;6970;51.340;3.240;2023-05-20T10:31:22;22.20;99.90
13798;DHT22;6970;51.340;3.240;2023-05-20T10:33:52;22.20;99.90
13798;DHT22;6970;51.340;3.240;2023-05-20T10:36:26;22.20;99.90
13798;DHT22;6970;51.340;3.240;2023-05-20T10:38:54;22.40;99.90
13798;DHT22;6970;51.340;3.240;2023-05-20T10:41:26;22.30;99.90
13798;DHT22;6970;51.340;3.240;2023-05-20T10:44:05;22.40;99.90
13798;DHT22;6970;51.340;3.240;2023-05-20T10:46:33;22.50;99.90
13798;DHT22;6970;51.340;3.240;2023-05-20T10:49:20;22.60;99.90
13798;DHT22;6970;51.340;3.240;2023-05-20T10:51:52;22.70;99.90
13798;DHT22;6970;51.340;3.240;2023-05-20T10:54:21;22.70;99.90
13798;DHT22;6970;51.340;3.240;2023-05-20T10:56:52;22.80;99.90
13798;DHT22;6970;51.340;3.240;2023-05-20T10:59:20;22.80;99.90
13798;DHT22;6970;51.340;3.240;2023-05-20T11:01:48;22.80;99.90
13798;DHT22;6970;51.340;3.240;2023-05-20T11:04:15;22.80;99.70
13798;DHT22;6970;51.340;3.240;2023-05-20T11:06:51;22.70;99.70
13798;DHT22;6970;51.340;3.240;2023-05-20T11:09:22;22.60;99.70
13798;DHT22;6970;51.340;3.240;2023-05-20T11:11:53;22.50;99.90
13798;DHT22;6970;51.340;3.240;2023-05-20T11:14:21;22.50;99.90
13798;DHT22;6970;51.340;3.240;2023-05-20T11:16:52;22.60;99.80
13798;DHT22;6970;51.340;3.240;2023-05-20T11:19:21;22.70;99.90
13798;DHT22;6970;51.340;3.240;2023-05-20T11:21:48;22.70;99.90
13798;DHT22;6970;51.340;3.240;2023-05-20T11:24:25;22.80;99.30
13798;DHT22;6970;51.340;3.240;2023-05-20T11:26:54;23.00;99.30
13798;DHT22;6970;51.340;3.240;2023-05-20T11:29:22;22.90;99.10
13798;DHT22;6970;51.340;3.240;2023-05-20T11:31:49;22.90;99.20
13798;DHT22;6970;51.340;3.240;2023-05-20T11:34:21;22.90;99.20
13798;DHT22;6970;51.340;3.240;2023-05-20T11:36:56;22.80;98.80
13798;DHT22;6970;51.340;3.240;2023-05-20T11:39:24;22.90;98.80
13798;DHT22;6970;51.340;3.240;2023-05-20T11:41:56;22.90;98.80
13798;DHT22;6970;51.340;3.240;2023-05-20T11:44:23;23.00;98.80
13798;DHT22;6970;51.340;3.240;2023-05-20T11:46:51;23.00;98.70
13798;DHT22;6970;51.340;3.240;2023-05-20T11:49:24;23.00;98.60
13798;DHT22;6970;51.340;3.240;2023-05-20T11:51:53;23.10;98.50
13798;DHT22;6970;51.340;3.240;2023-05-20T11:54:21;23.20;98.20
13798;DHT22;6970;51.340;3.240;2023-05-20T11:56:49;23.20;98.00
13798;DHT22;6970;51.340;3.240;2023-05-20T11:59:16;23.20;97.80
13798;DHT22;6970;51.340;3.240;2023-05-20T12:01:44;23.30;97.90
13798;DHT22;6970;51.340;3.240;2023-05-20T12:04:11;23.30;97.70
13798;DHT22;6970;51.340;3.240;2023-05-20T12:06:42;23.40;97.60
13798;DHT22;6970;51.340;3.240;2023-05-20T12:09:09;23.20;97.50
13798;DHT22;6970;51.340;3.240;2023-05-20T12:11:38;23.20;97.60
13798;DHT22;6970;51.340;3.240;2023-05-20T12:14:10;23.30;97.70
13798;DHT22;6970;51.340;3.240;2023-05-20T12:16:37;23.30;97.50
13798;DHT22;6970;51.340;3.240;2023-05-20T12:19:04;23.30;97.20
13798;DHT22;6970;51.340;3.240;2023-05-20T12:21:32;23.20;97.40
13798;DHT22;6970;51.340;3.240;2023-05-20T12:23:59;23.20;97.30
13798;DHT22;6970;51.340;3.240;2023-05-20T12:26:27;23.10;97.10
13798;DHT22;6970;51.340;3.240;2023-05-20T12:28:55;23.00;97.20
13798;DHT22;6970;51.340;3.240;2023-05-20T12:31:23;23.10;97.30
13798;DHT22;6970;51.340;3.240;2023-05-20T12:33:50;23.10;97.10
13798;DHT22;6970;51.340;3.240;2023-05-20T12:36:17;23.00;97.10
13798;DHT22;6970;51.340;3.240;2023-05-20T12:38:45;23.00;97.10
13798;DHT22;6970;51.340;3.240;2023-05-20T12:41:12;22.90;97.10
13798;DHT22;6970;51.340;3.240;2023-05-20T12:43:39;22.80;97.10
13798;DHT22;6970;51.340;3.240;2023-05-20T12:46:07;22.70;97.40
13798;DHT22;6970;51.340;3.240;2023-05-20T12:48:34;22.70;97.50
13798;DHT22;6970;51.340;3.240;2023-05-20T12:51:02;22.60;97.30
13798;DHT22;6970;51.340;3.240;2023-05-20T12:53:29;22.50;97.50
13798;DHT22;6970;51.340;3.240;2023-05-20T12:55:56;22.40;97.50
13798;DHT22;6970;51.340;3.240;2023-05-20T12:58:23;22.20;97.80
13798;DHT22;6970;51.340;3.240;2023-05-20T13:00:50;22.10;97.90
13798;DHT22;6970;51.340;3.240;2023-05-20T13:03:17;22.10;97.90
13798;DHT22;6970;51.340;3.240;2023-05-20T13:05:45;22.00;97.90
13798;DHT22;6970;51.340;3.240;2023-05-20T13:08:12;22.00;98.00
13798;DHT22;6970;51.340;3.240;2023-05-20T13:10:40;21.90;98.00
13798;DHT22;6970;51.340;3.240;2023-05-20T13:13:07;21.80;98.20
13798;DHT22;6970;51.340;3.240;2023-05-20T13:15:34;21.70;98.40
13798;DHT22;6970;51.340;3.240;2023-05-20T13:18:02;21.80;98.30
13798;DHT22;6970;51.340;3.240;2023-05-20T13:20:31;21.90;98.20
13798;DHT22;6970;51.340;3.240;2023-05-20T13:22:59;21.90;98.10
13798;DHT22;6970;51.340;3.240;2023-05-20T13:25:26;22.00;98.10
13798;DHT22;6970;51.340;3.240;2023-05-20T13:27:53;22.10;97.80
13798;DHT22;6970;51.340;3.240;2023-05-20T13:30:20;22.10;97.80
13798;DHT22;6970;51.340;3.240;2023-05-20T13:32:47;22.10;97.80
13798;DHT22;6970;51.340;3.240;2023-05-20T13:35:14;22.00;97.50
13798;DHT22;6970;51.340;3.240;2023-05-20T13:37:42;21.90;97.70
13798;DHT22;6970;51.340;3.240;2023-05-20T13:40:10;21.80;97.80
13798;DHT22;6970;51.340;3.240;2023-05-20T13:42:37;21.60;98.00
13798;DHT22;6970;51.340;3.240;2023-05-20T13:45:05;21.50;98.10
13798;DHT22;6970;51.340;3.240;2023-05-20T13:47:32;21.50;98.10
13798;DHT22;6970;51.340;3.240;2023-05-20T13:49:59;21.30;98.30
13798;DHT22;6970;51.340;3.240;2023-05-20T13:52:29;21.20;98.20
13798;DHT22;6970;51.340;3.240;2023-05-20T13:54:56;21.30;98.10
13798;DHT22;6970;51.340;3.240;2023-05-20T13:57:23;21.20;97.90
13798;DHT22;6970;51.340;3.240;2023-05-20T13:59:49;21.20;97.90
13798;DHT22;6970;51.340;3.240;2023-05-20T14:02:17;21.10;97.90
13798;DHT22;6970;51.340;3.240;2023-05-20T14:04:44;21.00;97.70
13798;DHT22;6970;51.340;3.240;2023-05-20T14:07:13;20.80;97.70
13798;DHT22;6970;51.340;3.240;2023-05-20T14:09:40;20.70;97.70
13798;DHT22;6970;51.340;3.240;2023-05-20T14:12:07;20.70;97.80
13798;DHT22;6970;51.340;3.240;2023-05-20T14:14:34;20.60;97.70
13798;DHT22;6970;51.340;3.240;2023-05-20T14:17:01;20.40;97.80
13798;DHT22;6970;51.340;3.240;2023-05-20T14:19:28;20.20;98.10
13798;DHT22;6970;51.340;3.240;2023-05-20T14:21:55;20.20;98.00
13798;DHT22;6970;51.340;3.240;2023-05-20T14:24:24;20.10;98.20
13798;DHT22;6970;51.340;3.240;2023-05-20T14:26:51;20.10;98.20
13798;DHT22;6970;51.340;3.240;2023-05-20T14:29:18;20.00;98.20
13798;DHT22;6970;51.340;3.240;2023-05-20T14:31:45;20.00;98.20
13798;DHT22;6970;51.340;3.240;2023-05-20T14:34:12;20.20;98.10
13798;DHT22;6970;51.340;3.240;2023-05-20T14:36:39;20.10;98.10
13798;DHT22;6970;51.340;3.240;2023-05-20T14:39:07;20.20;98.70
13798;DHT22;6970;51.340;3.240;2023-05-20T14:41:34;20.10;98.20
13798;DHT22;6970;51.340;3.240;2023-05-20T14:44:01;20.10;98.40
13798;DHT22;6970;51.340;3.240;2023-05-20T14:46:28;20.10;98.50
13798;DHT22;6970;51.340;3.240;2023-05-20T14:48:55;20.10;98.70
13798;DHT22;6970;51.340;3.240;2023-05-20T14:51:22;20.10;98.90
13798;DHT22;6970;51.340;3.240;2023-05-20T14:53:49;20.10;98.90
13798;DHT22;6970;51.340;3.240;2023-05-20T14:56:17;20.10;98.90
13798;DHT22;6970;51.340;3.240;2023-05-20T14:58:44;20.10;99.00
13798;DHT22;6970;51.340;3.240;2023-05-20T15:01:11;20.10;99.10
13798;DHT22;6970;51.340;3.240;2023-05-20T15:03:38;20.10;99.50
13798;DHT22;6970;51.340;3.240;2023-05-20T15:06:05;20.10;99.60
13798;DHT22;6970;51.340;3.240;2023-05-20T15:08:32;20.00;99.80
13798;DHT22;6970;51.340;3.240;2023-05-20T15:10:59;20.00;99.90
13798;DHT22;6970;51.340;3.240;2023-05-20T15:13:26;19.90;99.90
13798;DHT22;6970;51.340;3.240;2023-05-20T15:15:53;19.90;99.90
13798;DHT22;6970;51.340;3.240;2023-05-20T15:18:20;19.80;99.90
13798;DHT22;6970;51.340;3.240;2023-05-20T15:20:48;19.80;99.90
13798;DHT22;6970;51.340;3.240;2023-05-20T15:23:15;19.70;99.90
13798;DHT22;6970;51.340;3.240;2023-05-20T15:25:43;19.60;99.90
13798;DHT22;6970;51.340;3.240;2023-05-20T15:28:10;19.60;99.90
13798;DHT22;6970;51.340;3.240;2023-05-20T15:30:37;19.60;99.90
13798;DHT22;6970;51.340;3.240;2023-05-20T15:33:04;19.60;99.90
13798;DHT22;6970;51.340;3.240;2023-05-20T15:35:31;19.60;99.90
13798;DHT22;6970;51.340;3.240;2023-05-20T15:37:58;19.60;99.90
13798;DHT22;6970;51.340;3.240;2023-05-20T15:40:25;19.50;99.90
13798;DHT22;6970;51.340;3.240;2023-05-20T15:42:53;19.50;99.90
13798;DHT22;6970;51.340;3.240;2023-05-20T15:45:20;19.40;99.90
13798;DHT22;6970;51.340;3.240;2023-05-20T15:47:47;19.40;99.90
13798;DHT22;6970;51.340;3.240;2023-05-20T15:50:15;19.30;99.90
13798;DHT22;6970;51.340;3.240;2023-05-20T15:52:42;19.30;99.90
13798;DHT22;6970;51.340;3.240;2023-05-20T15:55:09;19.30;99.90
13798;DHT22;6970;51.340;3.240;2023-05-20T15:57:37;19.30;99.90
13798;DHT22;6970;51.340;3.240;2023-05-20T16:00:05;19.20;99.90
13798;DHT22;6970;51.340;3.240;2023-05-20T16:02:36;19.10;99.90